• Join FlightAware (Why Join?)
  • Login
  • US Flag 
02:38AM EDT


 

Airport Tracker/Info


-or-


 

Live Flight TrackerFlight Track Log ✈ TAM8005 ✈ 03-May-2013 ✈ SABE / AEP - SBGR / GRU

Flight Track Log - Related Links

Times and Time Zones

All times are in EDT time to prevent confusion due to time zone crossing. See the TAM8005 flight status page for this flight to view local times or setup timezone preferences in your user account.

Time Position Orientation Groundspeed Altitude Reporting Facility
EDT Latitude Longitude Course Direction KTS MPH feet Rate Location/Type
02:12PM -34.5550 -58.3680 32° Northeast 195 224 1,900  Level FlightAware
02:13PM -34.5300 -58.3490 32° Northeast 247 284 2,500 2,160 Climbing FlightAware
02:13PM -34.4990 -58.3260 31° Northeast 261 300 4,100 3,360 Climbing FlightAware
02:14PM -34.4720 -58.3050 33° Northeast 266 306 5,600 3,360 Climbing FlightAware
02:14PM -34.4410 -58.2810 33° Northeast 279 321 7,200 2,880 Climbing FlightAware
02:14PM -34.4230 -58.2750 15° North 280 322 7,800 2,820 Climbing FlightAware
02:15PM -34.3890 -58.2790 354° North 284 327 9,100 2,640 Climbing FlightAware
02:15PM -34.3380 -58.2880 352° North 305 351 10,700 2,040 Climbing FlightAware
02:16PM -34.2920 -58.2730 15° North 346 398 11,500 2,220 Climbing FlightAware
02:17PM -34.2260 -58.2390 23° Northeast 353 406 13,500 2,460 Climbing FlightAware
02:17PM -34.1670 -58.2030 27° Northeast 373 429 15,000 2,520 Climbing FlightAware
02:18PM -34.1100 -58.1530 36° Northeast 368 423 16,900 2,700 Climbing FlightAware
02:19PM -34.0460 -58.0970 36° Northeast 371 427 18,900 2,400 Climbing FlightAware
02:19PM -33.9910 -58.0490 36° Northeast 380 437 20,300 1,920 Climbing FlightAware
02:20PM -33.9260 -57.9920 36° Northeast 392 451 21,700 1,500 Climbing FlightAware
02:21PM -33.8670 -57.9410 36° Northeast 407 468 22,500 1,440 Climbing FlightAware
02:22PM -33.7960 -57.8790 36° Northeast 415 478 23,800 1,500 Climbing FlightAware
02:22PM -33.7330 -57.8240 36° Northeast 426 490 24,700 1,200 Climbing FlightAware
02:23PM -33.6680 -57.7680 36° Northeast 439 505 25,400 1,200 Climbing FlightAware
02:24PM -33.6030 -57.7120 36° Northeast 445 512 26,300 1,200 Climbing FlightAware
02:24PM -33.5270 -57.6460 36° Northeast 457 526 27,100 1,260 Climbing FlightAware
02:25PM -33.4580 -57.5860 36° Northeast 456 525 28,100 1,320 Climbing FlightAware
02:26PM -33.3770 -57.5170 35° Northeast 462 532 29,000 1,260 Climbing FlightAware
02:26PM -33.3090 -57.4580 36° Northeast 461 531 29,900 900 Climbing FlightAware
02:27PM -33.2150 -57.3770 36° Northeast 474 545 30,500 900 Climbing FlightAware
02:28PM -33.1330 -57.3080 35° Northeast 471 542 31,400 1,200 Climbing FlightAware
02:29PM -33.0610 -57.2460 36° Northeast 471 542 32,200 1,440 Climbing FlightAware
02:30PM -32.9910 -57.1860 36° Northeast 458 527 33,500 960 Climbing FlightAware
02:30PM -32.9340 -57.1380 35° Northeast 458 527 33,500  Level FlightAware
02:31PM -32.8750 -57.0890 35° Northeast 458 527 33,500 960 Level FlightAware
02:32PM -32.7650 -56.9950 36° Northeast 463 533 35,100 900 Climbing FlightAware
02:33PM -32.6910 -56.9330 35° Northeast 463 533 35,100  Level FlightAware
02:33PM -32.6310 -56.8840 35° Northeast 463 533 35,100  Level FlightAware
02:34PM -32.5710 -56.8340 35° Northeast 463 533 35,100 1,380 Level FlightAware
02:35PM -32.4720 -56.7480 36° Northeast 458 527 37,000 1,320 Climbing FlightAware
02:35PM -32.3990 -56.6880 35° Northeast 458 527 37,000  Level FlightAware
02:36PM -32.3400 -56.6390 35° Northeast 458 527 37,000  Level FlightAware
02:37PM -32.2810 -56.5900 35° Northeast 458 527 37,000  Level FlightAware
02:37PM -32.2080 -56.5290 35° Northeast 458 527 37,000  Level FlightAware
02:38PM -32.1490 -56.4800 35° Northeast 458 527 37,000  Level FlightAware
02:39PM -32.0900 -56.4320 35° Northeast 458 527 37,000  Level FlightAware
02:39PM -32.0310 -56.3830 35° Northeast 458 527 37,000  Level FlightAware
02:40PM -31.9720 -56.3340 35° Northeast 458 527 37,000  Level FlightAware
02:41PM -31.8980 -56.2730 35° Northeast 458 527 37,000  Level FlightAware
02:42PM -31.8390 -56.2250 35° Northeast 458 527 37,000  Level FlightAware
02:42PM -31.7800 -56.1760 35° Northeast 458 527 37,000  Level FlightAware
02:43PM -31.7210 -56.1270 35° Northeast 458 527 37,000  Level FlightAware
02:44PM -31.6620 -56.0790 35° Northeast 458 527 37,000  Level FlightAware
02:44PM -31.5880 -56.0180 35° Northeast 458 527 37,000  Level FlightAware
02:47PM -31.4448 -55.8292 48° Northeast  Level Estimated
02:48PM -31.3748 -55.7373 48° Northeast  Level Estimated
02:49PM -31.3048 -55.6456 48° Northeast  Level Estimated
02:50PM -31.2347 -55.5540 48° Northeast  Level Estimated
02:51PM -31.1645 -55.4625 48° Northeast  Level Estimated
02:52PM -31.0943 -55.3712 48° Northeast  Level Estimated
02:53PM -31.0240 -55.2800 48° Northeast  Level Estimated
02:53PM -30.7020 -54.8180 48° Northeast 454 522 37,000  Level FlightAware
02:54PM -30.6340 -54.7420 44° Northeast 458 527 37,000  Level FlightAware
02:55PM -30.5690 -54.6690 44° Northeast 461 531 37,000  Level FlightAware
02:55PM -30.5020 -54.5950 44° Northeast 463 533 37,000  Level FlightAware
02:56PM -30.4390 -54.5240 44° Northeast 466 536 37,000  Level FlightAware
02:57PM -30.3760 -54.4540 44° Northeast 463 533 37,000  Level FlightAware
02:58PM -30.3060 -54.3760 44° Northeast 463 533 37,000  Level FlightAware
02:58PM -30.2500 -54.3140 44° Northeast 465 535 37,000  Level FlightAware
02:59PM -30.1750 -54.2300 44° Northeast 466 536 37,000  Level FlightAware
03:00PM -30.1130 -54.1620 44° Northeast 463 533 37,000  Level FlightAware
03:00PM -30.0500 -54.0920 44° Northeast 464 534 37,000  Level FlightAware
03:01PM -29.9810 -54.0170 43° Northeast 466 536 37,000  Level FlightAware
03:02PM -29.9180 -53.9470 44° Northeast 472 543 37,000  Level FlightAware
03:02PM -29.8560 -53.8790 44° Northeast 474 545 37,000  Level FlightAware
03:03PM -29.8030 -53.8210 44° Northeast 480 552 37,000  Level FlightAware
03:04PM -29.7250 -53.7350 44° Northeast 486 559 37,000  Level FlightAware
03:04PM -29.6550 -53.6590 43° Northeast 492 566 37,000  Level FlightAware
03:05PM -29.5790 -53.5760 44° Northeast 496 571 37,000  Level FlightAware
03:06PM -29.5130 -53.5050 43° Northeast 499 574 37,000  Level FlightAware
03:07PM -29.4400 -53.4250 44° Northeast 501 577 37,000  Level FlightAware
03:07PM -29.3730 -53.3520 44° Northeast 504 580 37,000  Level FlightAware
03:08PM -29.3040 -53.2780 43° Northeast 497 572 37,000  Level FlightAware
03:09PM -29.2280 -53.1960 43° Northeast 496 571 37,000 120 Level FlightAware
03:09PM -29.1610 -53.1240 43° Northeast 488 562 37,200 300 Climbing FlightAware
03:10PM -29.0870 -53.0440 43° Northeast 488 562 37,500 480 Climbing FlightAware
03:11PM -29.0230 -52.9760 43° Northeast 483 556 37,900 480 Climbing FlightAware
03:11PM -28.9550 -52.9030 43° Northeast 478 550 38,200 480 Climbing FlightAware
03:12PM -28.8830 -52.8260 43° Northeast 480 552 38,600 480 Climbing FlightAware
03:13PM -28.8170 -52.7560 43° Northeast 476 548 38,900 240 Climbing FlightAware
03:14PM -28.7450 -52.6790 43° Northeast 476 548 39,000 60 Climbing FlightAware
03:14PM -28.6830 -52.6130 43° Northeast 478 550 39,000  Level FlightAware
03:15PM -28.6160 -52.5240 49° Northeast 484 557 39,000  Level FlightAware
03:16PM -28.5610 -52.4510 49° Northeast 483 556 39,000  Level FlightAware
03:16PM -28.5020 -52.3700 50° Northeast 484 557 39,000  Level FlightAware
03:17PM -28.4370 -52.2820 50° Northeast 484 557 39,000  Level FlightAware
03:18PM -28.3810 -52.2070 50° Northeast 484 557 39,000  Level FlightAware
03:19PM -28.3120 -52.1140 50° Northeast 485 558 39,000  Level FlightAware
03:19PM -28.2530 -52.0350 50° Northeast 487 560 39,000  Level FlightAware
03:20PM -28.1890 -51.9480 50° Northeast 490 564 39,000  Level FlightAware
03:21PM -28.1300 -51.8700 49° Northeast 492 566 39,000  Level FlightAware
03:21PM -28.0630 -51.7800 50° Northeast 496 571 39,000  Level FlightAware
03:22PM -28.0030 -51.7000 50° Northeast 504 580 39,000  Level FlightAware
03:23PM -27.9340 -51.6080 50° Northeast 510 587 39,000  Level FlightAware
03:23PM -27.8740 -51.5290 49° Northeast 514 592 39,000 60 Level FlightAware
03:24PM -27.7970 -51.4260 50° Northeast 516 594 39,100  Climbing FlightAware
03:25PM -27.7370 -51.3480 49° Northeast 515 593 39,000 -60 Descending FlightAware
03:26PM -27.7490 -51.3640 230° Southwest 515 593 39,000  Level FlightAware
03:27PM -27.5730 -51.1310 50° Northeast 525 604 39,000  Level FlightAware
03:28PM -27.4740 -51.0010 49° Northeast 519 597 39,000  Level FlightAware
03:28PM -27.4210 -50.9320 49° Northeast 524 603 39,000  Level FlightAware
03:29PM -27.3640 -50.8540 51° Northeast 530 610 39,000  Level FlightAware
03:30PM -27.3000 -50.7640 51° Northeast 530 610 39,000  Level FlightAware
03:30PM -27.2200 -50.6540 51° Northeast 527 606 39,000  Level FlightAware
03:31PM -27.1600 -50.5720 51° Northeast 527 606 39,000  Level FlightAware
03:32PM -27.0930 -50.4800 51° Northeast 527 606 39,000  Level FlightAware
03:33PM -27.0290 -50.3920 51° Northeast 527 606 39,000  Level FlightAware
03:33PM -26.9590 -50.2970 50° Northeast 528 608 39,000  Level FlightAware
03:34PM -26.8980 -50.2130 51° Northeast 528 608 39,000  Level FlightAware
03:35PM -26.8270 -50.1170 50° Northeast 527 606 39,000  Level FlightAware
03:35PM -26.7660 -50.0330 51° Northeast 524 603 39,000  Level FlightAware
03:36PM -26.6970 -49.9390 51° Northeast 524 603 39,000  Level FlightAware
03:37PM -26.6350 -49.8560 50° Northeast 524 603 39,000  Level FlightAware
03:37PM -26.5740 -49.7730 51° Northeast 523 602 39,000  Level FlightAware
03:38PM -26.5040 -49.6800 50° Northeast 521 600 39,000  Level FlightAware
03:39PM -26.4430 -49.5970 51° Northeast 518 596 39,000  Level FlightAware
03:40PM -26.3820 -49.5150 50° Northeast 517 595 39,000  Level FlightAware
03:40PM -26.3130 -49.4230 50° Northeast 516 594 39,000  Level FlightAware
03:41PM -26.2500 -49.3380 50° Northeast 515 593 39,000  Level FlightAware
03:42PM -26.1680 -49.2290 50° Northeast 515 593 39,000  Level FlightAware
03:42PM -26.1150 -49.1580 50° Northeast 514 592 39,000  Level FlightAware
03:43PM -26.0410 -49.0590 50° Northeast 513 590 39,000  Level FlightAware
03:44PM -25.9810 -48.9570 57° Northeast 515 593 39,000  Level FlightAware
03:45PM -25.9110 -48.8360 57° Northeast 516 594 39,000  Level FlightAware
03:46PM -25.8560 -48.7420 57° Northeast 517 595 39,000  Level FlightAware
03:46PM -25.7970 -48.6400 57° Northeast 520 598 39,000  Level FlightAware
03:47PM -25.7450 -48.5510 57° Northeast 520 598 39,000  Level FlightAware
03:48PM -25.6930 -48.4610 57° Northeast 519 597 39,000  Level FlightAware
03:48PM -25.6360 -48.3630 57° Northeast 515 593 39,000  Level FlightAware
03:49PM -25.5850 -48.2760 57° Northeast 514 592 39,000  Level FlightAware
03:50PM -25.5250 -48.1740 57° Northeast 514 592 39,000  Level FlightAware
03:50PM -25.4810 -48.0980 57° Northeast 514 592 39,000  Level FlightAware
03:51PM -25.4150 -47.9870 57° Northeast 513 590 39,000  Level FlightAware
03:52PM -25.3640 -47.8990 57° Northeast 513 590 39,000  Level FlightAware
03:53PM -25.3120 -47.8110 57° Northeast 513 590 39,000  Level FlightAware
03:53PM -25.2520 -47.7110 56° Northeast 513 590 39,000  Level FlightAware
03:54PM -25.2010 -47.6240 57° Northeast 513 590 39,000  Level FlightAware
03:55PM -25.1440 -47.5280 57° Northeast 511 588 39,000  Level FlightAware
03:55PM -25.0920 -47.4410 57° Northeast 511 588 39,000  Level FlightAware
03:56PM -25.0390 -47.3530 56° Northeast 512 589 39,000  Level FlightAware
03:57PM -24.9820 -47.2560 57° Northeast 512 589 39,000  Level FlightAware
03:57PM -24.9360 -47.1800 56° Northeast 507 583 39,000  Level FlightAware
03:58PM -24.8810 -47.1110 49° Northeast 497 572 39,000  Level FlightAware
03:59PM -24.8010 -47.0350 41° Northeast 499 574 39,000  Level FlightAware
04:00PM -24.7280 -46.9660 41° Northeast 496 571 39,000  Level FlightAware
04:00PM -24.6450 -46.8870 41° Northeast 497 572 39,000 -540 Level FlightAware
04:01PM -24.5810 -46.8260 41° Northeast 496 571 38,300 -1,440 Descending FlightAware
04:02PM -24.5010 -46.7510 40° Northeast 487 560 37,000 -2,280 Descending FlightAware
04:02PM -24.4460 -46.6990 41° Northeast 496 571 35,500 -2,880 Descending FlightAware
04:03PM -24.3630 -46.6210 41° Northeast 506 582 33,200 -3,000 Descending FlightAware
04:04PM -24.2790 -46.5420 41° Northeast 514 592 30,800 -3,360 Descending FlightAware
04:04PM -24.2230 -46.4890 41° Northeast 511 588 29,000 -3,420 Descending FlightAware
04:05PM -24.1380 -46.4090 41° Northeast 505 581 26,300 -3,420 Descending FlightAware
04:06PM -24.0640 -46.3390 41° Northeast 496 571 23,900 -3,480 Descending FlightAware
04:07PM -23.9690 -46.2930 24° Northeast 469 540 21,100 -3,300 Descending FlightAware
04:07PM -23.8820 -46.3010 355° North 456 525 19,000 -2,580 Descending FlightAware
04:08PM -23.7990 -46.3320 341° North 447 514 17,700 -1,860 Descending FlightAware
04:09PM -23.7300 -46.3570 342° North 446 513 16,700 -2,400 Descending FlightAware
04:09PM -23.6370 -46.3910 341° North 430 495 14,300 -2,100 Descending FlightAware
04:10PM -23.5560 -46.4200 342° North 372 428 13,400 -1,140 Descending FlightAware
04:11PM -23.4940 -46.4430 341° North 339 390 12,700 -900 Descending FlightAware
04:11PM -23.4500 -46.4600 340° North 315 362 12,400 -540 Descending FlightAware
04:12PM -23.3790 -46.4860 341° North 270 311 12,000 -300 Descending FlightAware
04:13PM -23.3350 -46.5010 343° North 239 275 12,000  Level FlightAware
04:14PM -23.2950 -46.5220 334° Northwest 241 277 12,000  Level FlightAware
04:14PM -23.2890 -46.5400 290° West 248 285 12,000  Level FlightAware
04:14PM -23.2910 -46.5710 266° West 258 297 12,000  Level FlightAware
04:15PM -23.2740 -46.6180 291° West 247 284 12,000  Level FlightAware
04:16PM -23.2270 -46.6020 17° North 262 302 12,000  Level FlightAware
04:17PM -23.2100 -46.5480 71° East 264 304 12,000  Level FlightAware
04:17PM -23.1960 -46.5010 72° East 264 304 12,000  Level FlightAware
04:18PM -23.1830 -46.4580 72° East 264 304 12,000 -2,400 Level FlightAware
04:18PM -23.2430 -46.4200 150° Southeast 257 296 9,800 -4,140 Descending FlightAware
04:19PM -23.2480 -46.3980 104° East 245 282 9,600 -600 Descending FlightAware
04:19PM -23.2440 -46.3590 84° East 216 249 9,300 -780 Descending FlightAware
04:19PM -23.2410 -46.3330 83° East 206 237 8,900 -1,020 Descending FlightAware
04:20PM -23.2380 -46.3020 84° East 205 236 8,400 -1,140 Descending FlightAware
04:20PM -23.2350 -46.2750 83° East 211 243 7,900 -1,080 Descending FlightAware
04:21PM -23.2340 -46.2650 84° East 209 241 7,800 -900 Descending FlightAware
04:21PM -23.2310 -46.2390 83° East 207 238 7,400 -960 Descending FlightAware
04:21PM -23.2380 -46.2200 112° Southeast 207 238 7,100 -1,080 Descending FlightAware
04:22PM -23.2480 -46.2070 130° Southeast 207 238 6,800 -1,020 Descending FlightAware
04:22PM -23.2600 -46.1990 149° Southeast 202 232 6,600 -840 Descending FlightAware
04:22PM -23.2860 -46.1880 159° South 196 226 6,200 -840 Descending FlightAware
04:23PM -23.2990 -46.1820 157° South 195 224 6,000 -900 Descending FlightAware
04:23PM -23.3210 -46.1730 159° South 194 223 5,600 -900 Descending FlightAware
04:23PM -23.3410 -46.1690 170° South 195 224 5,200 -900 Descending FlightAware
04:24PM -23.3590 -46.1920 230° Southwest 179 206 4,800 -600 Descending FlightAware
04:24PM -23.3660 -46.2170 253° West 183 211 4,700  Descending FlightAware
04:25PM -23.3720 -46.2400 254° West 180 207 4,800 60 Climbing FlightAware
04:25PM -23.3800 -46.2690 253° West 173 199 4,800  Level FlightAware
04:26PM -23.3850 -46.2880 254° West 173 199 4,800  Level FlightAware
04:26PM -23.3900 -46.3080 255° West 160 184 4,800 -240 Level FlightAware
04:27PM -23.3970 -46.3320 252° West 156 180 4,600 -540 Descending FlightAware
04:27PM -23.4020 -46.3520 255° West 151 174 4,300 -780 Descending FlightAware
04:28PM -23.4080 -46.3730 253° West 146 168 3,900 -780 Descending FlightAware
04:28PM -23.4140 -46.3930 252° West 142 163 3,600 -720 Descending FlightAware
04:28PM -23.4160 -46.4030 258° West 139 160 3,400 -780 Descending FlightAware
04:29PM -23.4210 -46.4210 253° West 138 159 3,100 -780 Descending FlightAware
04:29PM -23.4270 -46.4420 253° West 139 160 2,700 -720 Descending FlightAware
04:30PM -23.4300 -46.4560 257° West 139 160 2,500 -600 Descending FlightAware